sensor_id;sensor_type;location;lat;lon;timestamp;P1;durP1;ratioP1;P2;durP2;ratioP2
76228;SDS011;65021;53.174;18.160;2023-04-25T00:01:40;7.10;;;3.60;;
76228;SDS011;65021;53.174;18.160;2023-04-25T00:04:07;5.90;;;3.50;;
76228;SDS011;65021;53.174;18.160;2023-04-25T00:06:34;6.90;;;3.30;;
76228;SDS011;65021;53.174;18.160;2023-04-25T00:09:03;8.10;;;3.50;;
76228;SDS011;65021;53.174;18.160;2023-04-25T00:11:33;6.10;;;3.30;;
76228;SDS011;65021;53.174;18.160;2023-04-25T00:14:00;5.30;;;3.20;;
76228;SDS011;65021;53.174;18.160;2023-04-25T00:16:28;5.80;;;3.50;;
76228;SDS011;65021;53.174;18.160;2023-04-25T00:18:59;5.20;;;3.20;;
76228;SDS011;65021;53.174;18.160;2023-04-25T00:21:27;5.60;;;3.20;;
76228;SDS011;65021;53.174;18.160;2023-04-25T00:23:54;8.70;;;3.40;;
76228;SDS011;65021;53.174;18.160;2023-04-25T00:26:22;7.30;;;3.60;;
76228;SDS011;65021;53.174;18.160;2023-04-25T00:28:48;7.30;;;4.20;;
76228;SDS011;65021;53.174;18.160;2023-04-25T00:31:15;9.30;;;4.30;;
76228;SDS011;65021;53.174;18.160;2023-04-25T00:33:42;7.40;;;3.60;;
76228;SDS011;65021;53.174;18.160;2023-04-25T00:36:08;6.10;;;3.40;;
76228;SDS011;65021;53.174;18.160;2023-04-25T00:38:35;5.90;;;2.90;;
76228;SDS011;65021;53.174;18.160;2023-04-25T00:41:02;9.60;;;5.60;;
76228;SDS011;65021;53.174;18.160;2023-04-25T00:43:28;6.80;;;4.30;;
76228;SDS011;65021;53.174;18.160;2023-04-25T00:45:58;8.20;;;4.90;;
76228;SDS011;65021;53.174;18.160;2023-04-25T00:48:26;6.50;;;4.20;;
76228;SDS011;65021;53.174;18.160;2023-04-25T00:50:54;6.40;;;3.50;;
76228;SDS011;65021;53.174;18.160;2023-04-25T00:53:23;6.60;;;4.10;;
76228;SDS011;65021;53.174;18.160;2023-04-25T00:55:51;5.20;;;2.40;;
76228;SDS011;65021;53.174;18.160;2023-04-25T00:58:18;5.70;;;3.00;;
76228;SDS011;65021;53.174;18.160;2023-04-25T01:00:47;5.30;;;2.90;;
76228;SDS011;65021;53.174;18.160;2023-04-25T01:03:15;9.00;;;3.90;;
76228;SDS011;65021;53.174;18.160;2023-04-25T01:05:42;6.00;;;2.80;;
76228;SDS011;65021;53.174;18.160;2023-04-25T01:08:27;6.20;;;3.40;;
76228;SDS011;65021;53.174;18.160;2023-04-25T01:10:54;6.50;;;3.30;;
76228;SDS011;65021;53.174;18.160;2023-04-25T01:13:21;7.60;;;3.40;;
76228;SDS011;65021;53.174;18.160;2023-04-25T01:15:47;4.40;;;2.50;;
76228;SDS011;65021;53.174;18.160;2023-04-25T01:18:14;6.10;;;2.70;;
76228;SDS011;65021;53.174;18.160;2023-04-25T01:23:10;4.10;;;1.90;;
76228;SDS011;65021;53.174;18.160;2023-04-25T01:25:43;7.10;;;3.10;;
76228;SDS011;65021;53.174;18.160;2023-04-25T01:28:11;6.90;;;3.50;;
76228;SDS011;65021;53.174;18.160;2023-04-25T01:33:07;4.20;;;2.30;;
76228;SDS011;65021;53.174;18.160;2023-04-25T01:35:34;6.20;;;3.00;;
76228;SDS011;65021;53.174;18.160;2023-04-25T01:38:01;5.10;;;2.70;;
76228;SDS011;65021;53.174;18.160;2023-04-25T01:40:28;5.20;;;2.70;;
76228;SDS011;65021;53.174;18.160;2023-04-25T01:42:54;5.80;;;3.20;;
76228;SDS011;65021;53.174;18.160;2023-04-25T01:45:21;5.70;;;3.20;;
76228;SDS011;65021;53.174;18.160;2023-04-25T01:47:47;5.20;;;2.90;;
76228;SDS011;65021;53.174;18.160;2023-04-25T01:50:17;6.30;;;3.50;;
76228;SDS011;65021;53.174;18.160;2023-04-25T01:52:44;6.40;;;3.30;;
76228;SDS011;65021;53.174;18.160;2023-04-25T01:55:11;3.70;;;2.00;;
76228;SDS011;65021;53.174;18.160;2023-04-25T01:57:41;6.00;;;2.80;;
76228;SDS011;65021;53.174;18.160;2023-04-25T02:00:07;7.20;;;3.20;;
76228;SDS011;65021;53.174;18.160;2023-04-25T02:02:35;5.70;;;3.20;;
76228;SDS011;65021;53.174;18.160;2023-04-25T02:05:02;6.70;;;3.80;;
76228;SDS011;65021;53.174;18.160;2023-04-25T02:07:29;5.70;;;3.50;;
76228;SDS011;65021;53.174;18.160;2023-04-25T02:09:56;6.50;;;3.70;;
76228;SDS011;65021;53.174;18.160;2023-04-25T02:12:23;6.60;;;3.00;;
76228;SDS011;65021;53.174;18.160;2023-04-25T02:14:50;6.60;;;3.60;;
76228;SDS011;65021;53.174;18.160;2023-04-25T02:17:17;5.70;;;3.30;;
76228;SDS011;65021;53.174;18.160;2023-04-25T02:19:44;5.30;;;2.90;;
76228;SDS011;65021;53.174;18.160;2023-04-25T02:22:11;8.30;;;3.20;;
76228;SDS011;65021;53.174;18.160;2023-04-25T02:24:37;7.10;;;3.30;;
76228;SDS011;65021;53.174;18.160;2023-04-25T02:27:04;6.40;;;3.60;;
76228;SDS011;65021;53.174;18.160;2023-04-25T02:29:31;5.70;;;3.00;;
76228;SDS011;65021;53.174;18.160;2023-04-25T02:31:57;5.50;;;3.10;;
76228;SDS011;65021;53.174;18.160;2023-04-25T02:34:24;5.60;;;2.80;;
76228;SDS011;65021;53.174;18.160;2023-04-25T02:36:51;6.60;;;3.70;;
76228;SDS011;65021;53.174;18.160;2023-04-25T02:39:17;6.00;;;3.50;;
76228;SDS011;65021;53.174;18.160;2023-04-25T02:41:44;6.70;;;4.00;;
76228;SDS011;65021;53.174;18.160;2023-04-25T02:44:11;5.80;;;3.00;;
76228;SDS011;65021;53.174;18.160;2023-04-25T02:46:38;6.30;;;3.40;;
76228;SDS011;65021;53.174;18.160;2023-04-25T02:49:04;7.60;;;2.80;;
76228;SDS011;65021;53.174;18.160;2023-04-25T02:51:31;6.40;;;3.10;;
76228;SDS011;65021;53.174;18.160;2023-04-25T02:53:58;5.20;;;2.30;;
76228;SDS011;65021;53.174;18.160;2023-04-25T02:56:25;7.10;;;4.00;;
76228;SDS011;65021;53.174;18.160;2023-04-25T02:58:52;7.60;;;3.90;;
76228;SDS011;65021;53.174;18.160;2023-04-25T03:01:19;8.60;;;3.00;;
76228;SDS011;65021;53.174;18.160;2023-04-25T03:03:46;6.60;;;3.40;;
76228;SDS011;65021;53.174;18.160;2023-04-25T03:06:13;5.60;;;3.20;;
76228;SDS011;65021;53.174;18.160;2023-04-25T03:08:40;6.10;;;2.80;;
76228;SDS011;65021;53.174;18.160;2023-04-25T03:11:06;6.30;;;3.20;;
76228;SDS011;65021;53.174;18.160;2023-04-25T03:13:36;4.80;;;2.10;;
76228;SDS011;65021;53.174;18.160;2023-04-25T03:16:03;5.20;;;2.60;;
76228;SDS011;65021;53.174;18.160;2023-04-25T03:18:30;4.40;;;2.40;;
76228;SDS011;65021;53.174;18.160;2023-04-25T03:20:56;4.20;;;2.10;;
76228;SDS011;65021;53.174;18.160;2023-04-25T03:23:23;4.30;;;2.10;;
76228;SDS011;65021;53.174;18.160;2023-04-25T03:25:50;5.70;;;2.70;;
76228;SDS011;65021;53.174;18.160;2023-04-25T03:28:16;4.00;;;1.70;;
76228;SDS011;65021;53.174;18.160;2023-04-25T03:30:43;5.40;;;1.80;;
76228;SDS011;65021;53.174;18.160;2023-04-25T03:33:09;4.60;;;2.20;;
76228;SDS011;65021;53.174;18.160;2023-04-25T03:35:36;3.00;;;1.40;;
76228;SDS011;65021;53.174;18.160;2023-04-25T03:38:03;4.00;;;1.60;;
76228;SDS011;65021;53.174;18.160;2023-04-25T03:40:29;4.10;;;2.00;;
76228;SDS011;65021;53.174;18.160;2023-04-25T03:42:56;3.90;;;1.70;;
76228;SDS011;65021;53.174;18.160;2023-04-25T03:45:22;3.50;;;1.80;;
76228;SDS011;65021;53.174;18.160;2023-04-25T03:47:49;3.90;;;1.90;;
76228;SDS011;65021;53.174;18.160;2023-04-25T03:50:16;3.20;;;1.70;;
76228;SDS011;65021;53.174;18.160;2023-04-25T03:52:43;4.50;;;1.90;;
76228;SDS011;65021;53.174;18.160;2023-04-25T03:55:10;4.10;;;2.00;;
76228;SDS011;65021;53.174;18.160;2023-04-25T03:57:36;3.40;;;1.70;;
76228;SDS011;65021;53.174;18.160;2023-04-25T04:00:05;4.10;;;1.80;;
76228;SDS011;65021;53.174;18.160;2023-04-25T04:05:01;3.60;;;1.80;;
76228;SDS011;65021;53.174;18.160;2023-04-25T04:07:27;5.10;;;1.60;;
76228;SDS011;65021;53.174;18.160;2023-04-25T04:09:54;3.00;;;1.40;;
76228;SDS011;65021;53.174;18.160;2023-04-25T04:12:21;2.80;;;1.10;;
76228;SDS011;65021;53.174;18.160;2023-04-25T04:14:47;3.60;;;1.80;;
76228;SDS011;65021;53.174;18.160;2023-04-25T04:17:14;3.50;;;1.60;;
76228;SDS011;65021;53.174;18.160;2023-04-25T04:19:41;4.00;;;1.90;;
76228;SDS011;65021;53.174;18.160;2023-04-25T04:22:07;5.00;;;1.90;;
76228;SDS011;65021;53.174;18.160;2023-04-25T04:24:34;5.00;;;1.90;;
76228;SDS011;65021;53.174;18.160;2023-04-25T04:27:01;3.80;;;1.70;;
76228;SDS011;65021;53.174;18.160;2023-04-25T04:29:27;4.00;;;1.40;;
76228;SDS011;65021;53.174;18.160;2023-04-25T04:31:54;3.20;;;1.60;;
76228;SDS011;65021;53.174;18.160;2023-04-25T04:34:21;3.00;;;1.30;;
76228;SDS011;65021;53.174;18.160;2023-04-25T04:36:48;3.10;;;1.10;;
76228;SDS011;65021;53.174;18.160;2023-04-25T04:39:14;3.80;;;1.70;;
76228;SDS011;65021;53.174;18.160;2023-04-25T04:41:41;3.30;;;1.80;;
76228;SDS011;65021;53.174;18.160;2023-04-25T04:44:09;3.40;;;1.50;;
76228;SDS011;65021;53.174;18.160;2023-04-25T04:46:40;3.80;;;1.60;;
76228;SDS011;65021;53.174;18.160;2023-04-25T04:49:08;4.20;;;1.70;;
76228;SDS011;65021;53.174;18.160;2023-04-25T04:51:38;3.10;;;1.30;;
76228;SDS011;65021;53.174;18.160;2023-04-25T04:54:06;5.20;;;1.40;;
76228;SDS011;65021;53.174;18.160;2023-04-25T04:56:33;2.60;;;1.00;;
76228;SDS011;65021;53.174;18.160;2023-04-25T04:59:09;2.90;;;1.50;;
76228;SDS011;65021;53.174;18.160;2023-04-25T05:01:38;2.60;;;1.10;;
76228;SDS011;65021;53.174;18.160;2023-04-25T05:04:05;4.10;;;1.50;;
76228;SDS011;65021;53.174;18.160;2023-04-25T05:06:32;4.10;;;1.50;;
76228;SDS011;65021;53.174;18.160;2023-04-25T05:08:58;4.50;;;1.50;;
76228;SDS011;65021;53.174;18.160;2023-04-25T05:11:26;3.30;;;1.50;;
76228;SDS011;65021;53.174;18.160;2023-04-25T05:13:53;2.70;;;1.20;;
76228;SDS011;65021;53.174;18.160;2023-04-25T05:16:20;3.20;;;1.40;;
76228;SDS011;65021;53.174;18.160;2023-04-25T05:18:47;3.80;;;1.10;;
76228;SDS011;65021;53.174;18.160;2023-04-25T05:21:14;4.10;;;1.30;;
76228;SDS011;65021;53.174;18.160;2023-04-25T05:23:41;4.40;;;1.50;;
76228;SDS011;65021;53.174;18.160;2023-04-25T05:26:07;3.10;;;1.40;;
76228;SDS011;65021;53.174;18.160;2023-04-25T05:28:40;4.30;;;1.60;;
76228;SDS011;65021;53.174;18.160;2023-04-25T05:31:09;4.80;;;1.40;;
76228;SDS011;65021;53.174;18.160;2023-04-25T05:33:36;3.00;;;1.30;;
76228;SDS011;65021;53.174;18.160;2023-04-25T05:36:03;3.50;;;1.70;;
76228;SDS011;65021;53.174;18.160;2023-04-25T05:38:30;3.30;;;1.40;;
76228;SDS011;65021;53.174;18.160;2023-04-25T05:40:56;3.00;;;1.10;;
76228;SDS011;65021;53.174;18.160;2023-04-25T05:43:23;3.90;;;1.30;;
76228;SDS011;65021;53.174;18.160;2023-04-25T05:45:49;2.90;;;0.90;;
76228;SDS011;65021;53.174;18.160;2023-04-25T05:48:16;5.60;;;1.50;;
76228;SDS011;65021;53.174;18.160;2023-04-25T05:50:43;4.10;;;1.80;;
76228;SDS011;65021;53.174;18.160;2023-04-25T05:53:09;3.60;;;1.30;;
76228;SDS011;65021;53.174;18.160;2023-04-25T05:55:36;4.40;;;1.30;;
76228;SDS011;65021;53.174;18.160;2023-04-25T05:58:03;4.70;;;1.80;;
76228;SDS011;65021;53.174;18.160;2023-04-25T06:00:31;4.50;;;1.80;;
76228;SDS011;65021;53.174;18.160;2023-04-25T06:02:58;4.30;;;1.80;;
76228;SDS011;65021;53.174;18.160;2023-04-25T06:05:24;4.30;;;1.80;;
76228;SDS011;65021;53.174;18.160;2023-04-25T06:07:51;5.30;;;2.00;;
76228;SDS011;65021;53.174;18.160;2023-04-25T06:10:17;5.00;;;1.50;;
76228;SDS011;65021;53.174;18.160;2023-04-25T06:12:44;4.90;;;1.40;;
76228;SDS011;65021;53.174;18.160;2023-04-25T06:15:11;4.20;;;2.30;;
76228;SDS011;65021;53.174;18.160;2023-04-25T06:17:38;4.50;;;1.80;;
76228;SDS011;65021;53.174;18.160;2023-04-25T06:20:04;4.50;;;1.70;;
76228;SDS011;65021;53.174;18.160;2023-04-25T06:22:32;4.50;;;2.10;;
76228;SDS011;65021;53.174;18.160;2023-04-25T06:24:58;4.00;;;1.60;;
76228;SDS011;65021;53.174;18.160;2023-04-25T06:27:26;3.90;;;1.20;;
76228;SDS011;65021;53.174;18.160;2023-04-25T06:29:52;5.00;;;1.90;;
76228;SDS011;65021;53.174;18.160;2023-04-25T06:32:19;4.60;;;1.70;;
76228;SDS011;65021;53.174;18.160;2023-04-25T06:34:45;4.20;;;1.90;;
76228;SDS011;65021;53.174;18.160;2023-04-25T06:37:12;5.10;;;2.20;;
76228;SDS011;65021;53.174;18.160;2023-04-25T06:39:39;3.60;;;1.30;;
76228;SDS011;65021;53.174;18.160;2023-04-25T06:42:05;4.90;;;1.60;;
76228;SDS011;65021;53.174;18.160;2023-04-25T06:44:32;4.60;;;1.90;;
76228;SDS011;65021;53.174;18.160;2023-04-25T06:46:58;4.80;;;1.50;;
76228;SDS011;65021;53.174;18.160;2023-04-25T06:49:25;3.30;;;1.20;;
76228;SDS011;65021;53.174;18.160;2023-04-25T06:51:52;4.60;;;1.80;;
76228;SDS011;65021;53.174;18.160;2023-04-25T06:54:18;3.60;;;1.80;;
76228;SDS011;65021;53.174;18.160;2023-04-25T06:56:45;5.70;;;1.70;;
76228;SDS011;65021;53.174;18.160;2023-04-25T06:59:12;4.70;;;1.50;;
76228;SDS011;65021;53.174;18.160;2023-04-25T07:01:38;4.50;;;1.40;;
76228;SDS011;65021;53.174;18.160;2023-04-25T07:04:05;5.80;;;2.00;;
76228;SDS011;65021;53.174;18.160;2023-04-25T07:06:32;4.60;;;1.80;;
76228;SDS011;65021;53.174;18.160;2023-04-25T07:08:59;6.00;;;2.10;;
76228;SDS011;65021;53.174;18.160;2023-04-25T07:11:25;3.40;;;1.70;;
76228;SDS011;65021;53.174;18.160;2023-04-25T07:13:52;4.20;;;2.00;;
76228;SDS011;65021;53.174;18.160;2023-04-25T07:16:19;3.40;;;1.40;;
76228;SDS011;65021;53.174;18.160;2023-04-25T07:18:45;3.10;;;1.60;;
76228;SDS011;65021;53.174;18.160;2023-04-25T07:21:12;3.40;;;1.70;;
76228;SDS011;65021;53.174;18.160;2023-04-25T07:23:39;3.80;;;1.70;;
76228;SDS011;65021;53.174;18.160;2023-04-25T07:26:07;4.20;;;2.10;;
76228;SDS011;65021;53.174;18.160;2023-04-25T07:28:34;6.40;;;1.90;;
76228;SDS011;65021;53.174;18.160;2023-04-25T07:31:00;3.20;;;1.30;;
76228;SDS011;65021;53.174;18.160;2023-04-25T07:33:27;4.20;;;1.90;;
76228;SDS011;65021;53.174;18.160;2023-04-25T07:35:53;4.20;;;1.60;;
76228;SDS011;65021;53.174;18.160;2023-04-25T07:38:21;3.30;;;1.60;;
76228;SDS011;65021;53.174;18.160;2023-04-25T07:40:48;4.00;;;1.60;;
76228;SDS011;65021;53.174;18.160;2023-04-25T07:43:15;3.20;;;1.30;;
76228;SDS011;65021;53.174;18.160;2023-04-25T07:45:43;3.90;;;1.40;;
76228;SDS011;65021;53.174;18.160;2023-04-25T07:48:11;4.90;;;1.80;;
76228;SDS011;65021;53.174;18.160;2023-04-25T07:50:42;3.60;;;1.50;;
76228;SDS011;65021;53.174;18.160;2023-04-25T07:53:09;2.80;;;1.20;;
76228;SDS011;65021;53.174;18.160;2023-04-25T07:55:36;2.00;;;0.80;;
76228;SDS011;65021;53.174;18.160;2023-04-25T07:58:10;3.80;;;1.50;;
76228;SDS011;65021;53.174;18.160;2023-04-25T08:00:37;4.40;;;1.90;;
76228;SDS011;65021;53.174;18.160;2023-04-25T08:03:04;6.00;;;1.80;;
76228;SDS011;65021;53.174;18.160;2023-04-25T08:05:31;3.90;;;2.00;;
76228;SDS011;65021;53.174;18.160;2023-04-25T08:07:57;3.70;;;1.70;;
76228;SDS011;65021;53.174;18.160;2023-04-25T08:10:24;3.10;;;1.30;;
76228;SDS011;65021;53.174;18.160;2023-04-25T08:12:51;3.10;;;1.60;;
76228;SDS011;65021;53.174;18.160;2023-04-25T08:15:17;4.50;;;1.60;;
76228;SDS011;65021;53.174;18.160;2023-04-25T08:17:44;3.10;;;1.20;;
76228;SDS011;65021;53.174;18.160;2023-04-25T08:20:11;3.00;;;1.30;;
76228;SDS011;65021;53.174;18.160;2023-04-25T08:22:38;4.70;;;1.50;;
76228;SDS011;65021;53.174;18.160;2023-04-25T08:25:05;4.20;;;1.90;;
76228;SDS011;65021;53.174;18.160;2023-04-25T08:27:32;5.10;;;1.70;;
76228;SDS011;65021;53.174;18.160;2023-04-25T08:29:58;4.10;;;1.90;;
76228;SDS011;65021;53.174;18.160;2023-04-25T08:32:25;4.50;;;1.50;;
76228;SDS011;65021;53.174;18.160;2023-04-25T08:34:52;3.80;;;1.40;;
76228;SDS011;65021;53.174;18.160;2023-04-25T08:37:20;5.10;;;2.00;;
76228;SDS011;65021;53.174;18.160;2023-04-25T08:39:47;4.50;;;1.70;;
76228;SDS011;65021;53.174;18.160;2023-04-25T08:42:19;4.20;;;1.50;;
76228;SDS011;65021;53.174;18.160;2023-04-25T08:44:48;4.00;;;1.80;;
76228;SDS011;65021;53.174;18.160;2023-04-25T08:47:15;3.30;;;1.40;;
76228;SDS011;65021;53.174;18.160;2023-04-25T08:49:47;5.10;;;2.00;;
76228;SDS011;65021;53.174;18.160;2023-04-25T08:52:21;4.60;;;1.70;;
76228;SDS011;65021;53.174;18.160;2023-04-25T08:54:52;4.20;;;1.70;;
76228;SDS011;65021;53.174;18.160;2023-04-25T08:59:48;3.90;;;1.50;;
76228;SDS011;65021;53.174;18.160;2023-04-25T09:02:15;3.30;;;1.10;;
76228;SDS011;65021;53.174;18.160;2023-04-25T09:04:46;4.90;;;1.90;;
76228;SDS011;65021;53.174;18.160;2023-04-25T09:07:12;3.30;;;1.20;;
76228;SDS011;65021;53.174;18.160;2023-04-25T09:09:41;2.60;;;1.10;;
76228;SDS011;65021;53.174;18.160;2023-04-25T09:12:08;3.80;;;2.10;;
76228;SDS011;65021;53.174;18.160;2023-04-25T09:14:35;4.50;;;1.60;;
76228;SDS011;65021;53.174;18.160;2023-04-25T09:17:03;5.00;;;1.60;;
76228;SDS011;65021;53.174;18.160;2023-04-25T09:19:31;3.60;;;1.50;;
76228;SDS011;65021;53.174;18.160;2023-04-25T09:22:02;3.60;;;1.40;;
76228;SDS011;65021;53.174;18.160;2023-04-25T09:24:30;2.70;;;1.00;;
76228;SDS011;65021;53.174;18.160;2023-04-25T09:26:57;4.70;;;1.60;;
76228;SDS011;65021;53.174;18.160;2023-04-25T09:29:31;4.50;;;1.10;;
76228;SDS011;65021;53.174;18.160;2023-04-25T09:34:39;3.40;;;1.60;;
76228;SDS011;65021;53.174;18.160;2023-04-25T09:37:10;4.20;;;1.40;;
76228;SDS011;65021;53.174;18.160;2023-04-25T09:39:38;6.00;;;2.00;;
76228;SDS011;65021;53.174;18.160;2023-04-25T09:42:05;5.10;;;1.70;;
76228;SDS011;65021;53.174;18.160;2023-04-25T09:44:32;4.10;;;2.20;;
76228;SDS011;65021;53.174;18.160;2023-04-25T09:46:58;3.60;;;1.40;;
76228;SDS011;65021;53.174;18.160;2023-04-25T09:49:25;4.30;;;1.60;;
76228;SDS011;65021;53.174;18.160;2023-04-25T09:51:54;3.40;;;1.40;;
76228;SDS011;65021;53.174;18.160;2023-04-25T09:54:24;3.90;;;1.50;;
76228;SDS011;65021;53.174;18.160;2023-04-25T09:56:53;4.10;;;1.80;;
76228;SDS011;65021;53.174;18.160;2023-04-25T09:59:20;5.60;;;1.50;;
76228;SDS011;65021;53.174;18.160;2023-04-25T10:01:49;5.40;;;1.80;;
76228;SDS011;65021;53.174;18.160;2023-04-25T10:04:19;3.70;;;1.80;;
76228;SDS011;65021;53.174;18.160;2023-04-25T10:06:49;3.80;;;1.50;;
76228;SDS011;65021;53.174;18.160;2023-04-25T10:09:20;4.10;;;1.90;;
76228;SDS011;65021;53.174;18.160;2023-04-25T10:11:47;3.60;;;1.50;;
76228;SDS011;65021;53.174;18.160;2023-04-25T10:14:17;4.70;;;1.60;;
76228;SDS011;65021;53.174;18.160;2023-04-25T10:16:45;3.90;;;1.10;;
76228;SDS011;65021;53.174;18.160;2023-04-25T10:19:13;3.70;;;1.30;;
76228;SDS011;65021;53.174;18.160;2023-04-25T10:21:46;3.90;;;1.90;;
76228;SDS011;65021;53.174;18.160;2023-04-25T10:24:17;4.20;;;1.30;;
76228;SDS011;65021;53.174;18.160;2023-04-25T10:26:45;4.30;;;1.80;;
76228;SDS011;65021;53.174;18.160;2023-04-25T10:29:15;3.10;;;1.30;;
76228;SDS011;65021;53.174;18.160;2023-04-25T10:31:48;5.10;;;1.90;;
76228;SDS011;65021;53.174;18.160;2023-04-25T10:34:15;5.60;;;1.70;;
76228;SDS011;65021;53.174;18.160;2023-04-25T10:36:44;3.30;;;1.20;;
76228;SDS011;65021;53.174;18.160;2023-04-25T10:39:24;4.00;;;1.50;;
76228;SDS011;65021;53.174;18.160;2023-04-25T10:41:55;4.10;;;1.40;;
76228;SDS011;65021;53.174;18.160;2023-04-25T10:44:25;3.70;;;1.50;;
76228;SDS011;65021;53.174;18.160;2023-04-25T10:46:54;4.50;;;1.60;;
76228;SDS011;65021;53.174;18.160;2023-04-25T10:49:30;3.20;;;1.60;;
76228;SDS011;65021;53.174;18.160;2023-04-25T10:52:18;2.30;;;1.10;;
76228;SDS011;65021;53.174;18.160;2023-04-25T10:54:51;4.90;;;1.50;;
76228;SDS011;65021;53.174;18.160;2023-04-25T10:57:26;3.00;;;1.40;;
76228;SDS011;65021;53.174;18.160;2023-04-25T10:59:59;3.80;;;1.70;;
76228;SDS011;65021;53.174;18.160;2023-04-25T11:02:27;3.60;;;1.20;;
76228;SDS011;65021;53.174;18.160;2023-04-25T11:04:55;4.70;;;1.50;;
76228;SDS011;65021;53.174;18.160;2023-04-25T11:07:38;4.60;;;1.70;;
76228;SDS011;65021;53.174;18.160;2023-04-25T11:10:05;4.60;;;1.50;;
76228;SDS011;65021;53.174;18.160;2023-04-25T11:12:32;4.30;;;1.70;;
76228;SDS011;65021;53.174;18.160;2023-04-25T11:15:00;5.20;;;1.60;;
76228;SDS011;65021;53.174;18.160;2023-04-25T11:17:31;2.80;;;1.20;;
76228;SDS011;65021;53.174;18.160;2023-04-25T11:19:58;5.80;;;2.10;;
76228;SDS011;65021;53.174;18.160;2023-04-25T11:22:25;2.70;;;1.20;;
76228;SDS011;65021;53.174;18.160;2023-04-25T11:24:53;3.40;;;1.30;;
76228;SDS011;65021;53.174;18.160;2023-04-25T11:27:20;3.50;;;1.50;;
76228;SDS011;65021;53.174;18.160;2023-04-25T11:29:47;2.10;;;1.00;;
76228;SDS011;65021;53.174;18.160;2023-04-25T11:32:17;3.50;;;1.30;;
76228;SDS011;65021;53.174;18.160;2023-04-25T11:34:44;3.20;;;1.30;;
76228;SDS011;65021;53.174;18.160;2023-04-25T11:37:13;2.80;;;1.40;;
76228;SDS011;65021;53.174;18.160;2023-04-25T11:39:43;3.80;;;1.50;;
76228;SDS011;65021;53.174;18.160;2023-04-25T11:42:12;4.60;;;1.70;;
76228;SDS011;65021;53.174;18.160;2023-04-25T11:44:39;2.90;;;1.40;;
76228;SDS011;65021;53.174;18.160;2023-04-25T11:47:06;3.80;;;1.60;;
76228;SDS011;65021;53.174;18.160;2023-04-25T11:49:33;4.50;;;1.70;;
76228;SDS011;65021;53.174;18.160;2023-04-25T11:52:01;3.60;;;1.40;;
76228;SDS011;65021;53.174;18.160;2023-04-25T11:54:27;3.30;;;1.40;;
76228;SDS011;65021;53.174;18.160;2023-04-25T11:56:54;5.40;;;1.60;;
76228;SDS011;65021;53.174;18.160;2023-04-25T11:59:24;4.70;;;2.00;;
76228;SDS011;65021;53.174;18.160;2023-04-25T12:01:51;5.00;;;1.80;;
76228;SDS011;65021;53.174;18.160;2023-04-25T12:04:19;4.30;;;1.60;;
76228;SDS011;65021;53.174;18.160;2023-04-25T12:06:54;3.00;;;1.40;;
76228;SDS011;65021;53.174;18.160;2023-04-25T12:09:27;3.20;;;1.40;;
76228;SDS011;65021;53.174;18.160;2023-04-25T12:11:56;4.30;;;1.90;;
76228;SDS011;65021;53.174;18.160;2023-04-25T12:14:25;3.90;;;1.50;;
76228;SDS011;65021;53.174;18.160;2023-04-25T12:16:57;3.80;;;1.70;;
76228;SDS011;65021;53.174;18.160;2023-04-25T12:21:55;4.60;;;1.90;;
76228;SDS011;65021;53.174;18.160;2023-04-25T12:24:22;4.40;;;1.90;;
76228;SDS011;65021;53.174;18.160;2023-04-25T12:27:04;4.10;;;1.80;;
76228;SDS011;65021;53.174;18.160;2023-04-25T12:29:32;3.60;;;0.90;;
76228;SDS011;65021;53.174;18.160;2023-04-25T12:32:00;3.70;;;1.80;;
76228;SDS011;65021;53.174;18.160;2023-04-25T12:34:29;3.20;;;1.80;;
76228;SDS011;65021;53.174;18.160;2023-04-25T12:36:58;3.10;;;1.20;;
76228;SDS011;65021;53.174;18.160;2023-04-25T12:39:25;4.20;;;1.60;;
76228;SDS011;65021;53.174;18.160;2023-04-25T12:41:52;3.70;;;1.50;;
76228;SDS011;65021;53.174;18.160;2023-04-25T12:44:20;3.40;;;1.10;;
76228;SDS011;65021;53.174;18.160;2023-04-25T12:46:48;4.80;;;1.70;;
76228;SDS011;65021;53.174;18.160;2023-04-25T12:49:14;3.50;;;1.60;;
76228;SDS011;65021;53.174;18.160;2023-04-25T12:51:41;3.90;;;1.60;;
76228;SDS011;65021;53.174;18.160;2023-04-25T12:54:07;4.50;;;2.10;;
76228;SDS011;65021;53.174;18.160;2023-04-25T12:56:35;4.90;;;1.60;;
76228;SDS011;65021;53.174;18.160;2023-04-25T12:59:02;3.70;;;1.60;;
76228;SDS011;65021;53.174;18.160;2023-04-25T13:01:29;3.50;;;1.90;;
76228;SDS011;65021;53.174;18.160;2023-04-25T13:03:56;3.60;;;1.60;;
76228;SDS011;65021;53.174;18.160;2023-04-25T13:06:23;4.40;;;1.90;;
76228;SDS011;65021;53.174;18.160;2023-04-25T13:08:49;3.10;;;1.20;;
76228;SDS011;65021;53.174;18.160;2023-04-25T13:11:16;4.90;;;1.50;;
76228;SDS011;65021;53.174;18.160;2023-04-25T13:13:43;3.10;;;1.40;;
76228;SDS011;65021;53.174;18.160;2023-04-25T13:16:10;3.70;;;1.40;;
76228;SDS011;65021;53.174;18.160;2023-04-25T13:18:39;4.80;;;1.60;;
76228;SDS011;65021;53.174;18.160;2023-04-25T13:21:08;3.30;;;1.10;;
76228;SDS011;65021;53.174;18.160;2023-04-25T13:23:37;4.00;;;1.40;;
76228;SDS011;65021;53.174;18.160;2023-04-25T13:26:06;3.60;;;1.70;;
76228;SDS011;65021;53.174;18.160;2023-04-25T13:28:36;3.50;;;1.30;;
76228;SDS011;65021;53.174;18.160;2023-04-25T13:31:02;3.10;;;1.40;;
76228;SDS011;65021;53.174;18.160;2023-04-25T13:33:29;5.90;;;1.80;;
76228;SDS011;65021;53.174;18.160;2023-04-25T13:35:56;2.90;;;1.00;;
76228;SDS011;65021;53.174;18.160;2023-04-25T13:38:25;4.70;;;1.40;;
76228;SDS011;65021;53.174;18.160;2023-04-25T13:40:52;3.10;;;1.30;;
76228;SDS011;65021;53.174;18.160;2023-04-25T13:43:19;4.90;;;1.10;;
76228;SDS011;65021;53.174;18.160;2023-04-25T13:45:50;2.60;;;1.00;;
76228;SDS011;65021;53.174;18.160;2023-04-25T13:48:18;4.20;;;1.10;;
76228;SDS011;65021;53.174;18.160;2023-04-25T13:50:45;4.20;;;1.00;;
76228;SDS011;65021;53.174;18.160;2023-04-25T13:53:11;2.60;;;1.00;;
76228;SDS011;65021;53.174;18.160;2023-04-25T13:55:38;3.40;;;1.40;;
76228;SDS011;65021;53.174;18.160;2023-04-25T13:58:06;4.20;;;1.50;;
76228;SDS011;65021;53.174;18.160;2023-04-25T14:00:35;3.70;;;1.30;;
76228;SDS011;65021;53.174;18.160;2023-04-25T14:03:04;5.20;;;2.10;;
76228;SDS011;65021;53.174;18.160;2023-04-25T14:05:33;3.90;;;1.60;;
76228;SDS011;65021;53.174;18.160;2023-04-25T14:08:04;5.90;;;2.10;;
76228;SDS011;65021;53.174;18.160;2023-04-25T14:10:32;4.60;;;1.90;;
76228;SDS011;65021;53.174;18.160;2023-04-25T14:12:58;4.30;;;2.00;;
76228;SDS011;65021;53.174;18.160;2023-04-25T14:15:26;6.00;;;2.00;;
76228;SDS011;65021;53.174;18.160;2023-04-25T14:17:53;4.70;;;2.10;;
76228;SDS011;65021;53.174;18.160;2023-04-25T14:20:20;3.50;;;1.70;;
76228;SDS011;65021;53.174;18.160;2023-04-25T14:22:47;4.70;;;1.80;;
76228;SDS011;65021;53.174;18.160;2023-04-25T14:25:14;5.50;;;2.30;;
76228;SDS011;65021;53.174;18.160;2023-04-25T14:27:40;5.00;;;2.40;;
76228;SDS011;65021;53.174;18.160;2023-04-25T14:30:07;5.30;;;2.30;;
76228;SDS011;65021;53.174;18.160;2023-04-25T14:32:35;5.90;;;1.80;;
76228;SDS011;65021;53.174;18.160;2023-04-25T14:35:02;3.70;;;1.50;;
76228;SDS011;65021;53.174;18.160;2023-04-25T14:37:29;4.50;;;1.40;;
76228;SDS011;65021;53.174;18.160;2023-04-25T14:39:56;2.00;;;1.00;;
76228;SDS011;65021;53.174;18.160;2023-04-25T14:42:22;1.90;;;0.80;;
76228;SDS011;65021;53.174;18.160;2023-04-25T14:44:49;3.10;;;1.10;;
76228;SDS011;65021;53.174;18.160;2023-04-25T14:47:16;3.50;;;1.00;;
76228;SDS011;65021;53.174;18.160;2023-04-25T14:49:43;4.00;;;1.10;;
76228;SDS011;65021;53.174;18.160;2023-04-25T14:52:10;2.40;;;0.80;;